createdAt,value
2019-04-27T00:01:35.678Z,12.20
2019-04-27T00:04:38.654Z,12.20
2019-04-27T00:07:29.004Z,12.20
2019-04-27T00:10:20.434Z,12.10
2019-04-27T00:12:48.675Z,12.10
2019-04-27T00:15:31.336Z,12.00
2019-04-27T00:18:28.881Z,11.90
2019-04-27T00:21:13.495Z,11.90
2019-04-27T00:23:44.935Z,11.90
2019-04-27T00:26:18.199Z,11.80
2019-04-27T00:28:50.357Z,11.80
2019-04-27T00:31:31.588Z,11.70
2019-04-27T00:34:17.963Z,11.60
2019-04-27T00:37:09.925Z,11.60
2019-04-27T00:39:55.164Z,11.50
2019-04-27T00:42:25.607Z,11.40
2019-04-27T00:44:55.579Z,11.40
2019-04-27T00:47:25.500Z,11.30
2019-04-27T00:49:55.643Z,11.20
2019-04-27T00:52:32.613Z,11.20
2019-04-27T00:55:03.234Z,11.20
2019-04-27T00:57:58.838Z,11.20
2019-04-27T01:00:51.623Z,11.20
2019-04-27T01:03:39.629Z,11.20
2019-04-27T01:06:14.773Z,11.20
2019-04-27T01:08:45.927Z,11.30
2019-04-27T01:11:17.047Z,11.30
2019-04-27T01:13:49.829Z,11.30
2019-04-27T01:16:22.488Z,11.30
2019-04-27T01:18:52.782Z,11.30
2019-04-27T01:21:24.345Z,11.30
2019-04-27T01:23:54.588Z,11.20
2019-04-27T01:26:46.026Z,11.20
2019-04-27T01:29:26.706Z,11.20
2019-04-27T01:32:18.641Z,11.20
2019-04-27T01:34:54.498Z,11.10
2019-04-27T01:37:25.246Z,11.10
2019-04-27T01:39:59.026Z,11.10
2019-04-27T01:42:29.533Z,11.10
2019-04-27T01:45:11.644Z,11.10
2019-04-27T01:47:41.765Z,11.10
2019-04-27T01:50:11.878Z,11.10
2019-04-27T01:52:42.003Z,11.00
2019-04-27T01:55:12.848Z,11.00
2019-04-27T01:57:43.682Z,10.90
2019-04-27T02:00:59.486Z,11.00
2019-04-27T02:03:38.822Z,10.90
2019-04-27T02:06:09.183Z,10.90
2019-04-27T02:08:40.956Z,10.90
2019-04-27T02:11:11.080Z,10.90
2019-04-27T02:13:55.462Z,10.90
2019-04-27T02:16:33.113Z,10.80
2019-04-27T02:19:05.523Z,10.80
2019-04-27T02:21:35.476Z,10.70
2019-04-27T02:24:06.366Z,10.70
2019-04-27T02:26:36.239Z,10.70
2019-04-27T02:29:33.023Z,10.70
2019-04-27T02:32:22.211Z,10.80
2019-04-27T02:34:56.322Z,10.80
2019-04-27T02:37:30.198Z,10.80
2019-04-27T02:39:59.997Z,10.80
2019-04-27T02:42:39.289Z,10.80
2019-04-27T02:45:09.753Z,10.80
2019-04-27T02:47:40.855Z,10.90
2019-04-27T02:50:14.955Z,10.90
2019-04-27T02:52:49.971Z,10.80
2019-04-27T02:55:22.101Z,10.80
2019-04-27T02:57:52.677Z,10.90
2019-04-27T03:00:22.989Z,10.90
2019-04-27T03:03:02.634Z,10.90
2019-04-27T03:05:32.395Z,10.90
2019-04-27T03:08:02.984Z,10.80
2019-04-27T03:10:32.775Z,10.80
2019-04-27T03:13:24.750Z,10.70
2019-04-27T03:16:04.577Z,10.70
2019-04-27T03:19:09.771Z,10.70
2019-04-27T03:21:29.338Z,10.70
2019-04-27T03:24:04.294Z,10.70
2019-04-27T03:26:50.102Z,10.70
2019-04-27T03:29:23.817Z,10.70
2019-04-27T03:32:02.002Z,10.70
2019-04-27T03:34:32.616Z,10.60
2019-04-27T03:37:05.746Z,10.60
2019-04-27T03:39:36.020Z,10.60
2019-04-27T03:42:07.121Z,10.60
2019-04-27T03:44:40.068Z,10.60
2019-04-27T03:47:12.654Z,10.60
2019-04-27T03:49:41.879Z,10.60
2019-04-27T03:52:20.592Z,10.60
2019-04-27T03:55:10.085Z,10.70
2019-04-27T03:57:49.683Z,10.80
2019-04-27T04:00:21.340Z,10.80
2019-04-27T04:02:51.238Z,10.80
2019-04-27T04:05:21.192Z,10.70
2019-04-27T04:07:51.331Z,10.70
2019-04-27T04:10:21.227Z,10.70
2019-04-27T04:13:13.071Z,10.70
2019-04-27T04:16:07.850Z,10.60
2019-04-27T04:19:00.878Z,10.60
2019-04-27T04:21:33.752Z,10.50
2019-04-27T04:24:03.814Z,10.60
2019-04-27T04:26:36.093Z,10.60
2019-04-27T04:29:06.685Z,10.60
2019-04-27T04:31:40.557Z,10.50
2019-04-27T04:34:12.199Z,10.50
2019-04-27T04:36:42.560Z,10.50
2019-04-27T04:39:12.964Z,10.50
2019-04-27T04:41:59.784Z,10.40
2019-04-27T04:44:42.000Z,10.50
2019-04-27T04:47:19.516Z,10.50
2019-04-27T04:50:07.098Z,10.50
2019-04-27T04:52:23.431Z,10.40
2019-04-27T04:54:53.347Z,10.50
2019-04-27T04:57:23.124Z,10.50
2019-04-27T04:59:53.132Z,10.50
2019-04-27T05:02:22.943Z,10.60
2019-04-27T05:04:52.760Z,10.60
2019-04-27T05:07:22.674Z,10.60
2019-04-27T05:09:52.432Z,10.70
2019-04-27T05:12:22.288Z,10.80
2019-04-27T05:14:54.816Z,10.80
2019-04-27T05:17:29.955Z,10.90
2019-04-27T05:20:01.346Z,11.00
2019-04-27T05:22:31.421Z,11.00
2019-04-27T05:25:01.254Z,11.10
2019-04-27T05:27:32.519Z,11.10
2019-04-27T05:30:05.748Z,11.20
2019-04-27T05:32:36.499Z,11.30
2019-04-27T05:35:09.354Z,11.30
2019-04-27T05:37:40.627Z,11.40
2019-04-27T05:40:10.911Z,11.50
2019-04-27T05:42:41.151Z,11.60
2019-04-27T05:45:34.040Z,11.60
2019-04-27T05:48:10.969Z,11.50
2019-04-27T05:50:45.618Z,11.30
2019-04-27T05:53:12.772Z,11.20
2019-04-27T05:55:44.220Z,11.00
2019-04-27T05:58:17.478Z,10.80
2019-04-27T06:00:49.453Z,10.80
2019-04-27T06:03:21.050Z,10.70
2019-04-27T06:05:51.427Z,10.60
2019-04-27T06:08:21.252Z,10.50
2019-04-27T06:10:50.964Z,10.50
2019-04-27T06:13:20.917Z,10.40
2019-04-27T06:15:50.895Z,10.40
2019-04-27T06:18:20.860Z,10.40
2019-04-27T06:20:55.569Z,10.40
2019-04-27T06:23:22.181Z,10.40
2019-04-27T06:25:55.326Z,10.30
2019-04-27T06:28:25.050Z,10.30
2019-04-27T06:30:56.267Z,10.30
2019-04-27T06:33:32.114Z,10.40
2019-04-27T06:35:59.736Z,10.40
2019-04-27T06:38:29.631Z,10.50
2019-04-27T06:41:07.058Z,10.60
2019-04-27T06:43:37.016Z,10.60
2019-04-27T06:46:06.766Z,10.60
2019-04-27T06:48:36.934Z,10.60
2019-04-27T06:51:06.896Z,10.60
2019-04-27T06:53:37.064Z,10.70
2019-04-27T06:56:13.114Z,10.70
2019-04-27T06:58:40.836Z,10.80
2019-04-27T07:01:11.121Z,10.90
2019-04-27T07:03:41.174Z,11.00
2019-04-27T07:06:12.301Z,11.10
2019-04-27T07:08:44.677Z,11.10
2019-04-27T07:11:22.029Z,11.20
2019-04-27T07:13:55.581Z,11.20
2019-04-27T07:16:26.384Z,11.20
2019-04-27T07:18:56.243Z,11.20
2019-04-27T07:21:31.846Z,11.10
2019-04-27T07:24:02.071Z,11.20
2019-04-27T07:26:36.023Z,11.20
2019-04-27T07:29:05.887Z,11.30
2019-04-27T07:31:36.971Z,11.30
2019-04-27T07:34:10.443Z,11.20
2019-04-27T07:36:40.460Z,11.20
2019-04-27T07:39:11.608Z,11.20
2019-04-27T07:41:41.898Z,11.20
2019-04-27T07:44:32.757Z,11.20
2019-04-27T07:47:34.159Z,11.10
2019-04-27T07:50:07.262Z,11.10
2019-04-27T07:52:40.348Z,11.00
2019-04-27T07:55:09.807Z,10.90
2019-04-27T07:57:40.900Z,10.90
2019-04-27T08:00:11.698Z,11.00
2019-04-27T08:02:41.666Z,10.90
2019-04-27T08:05:11.744Z,11.00
2019-04-27T08:07:45.263Z,11.00
2019-04-27T08:10:19.609Z,11.00
2019-04-27T08:12:50.743Z,11.00
2019-04-27T08:15:22.683Z,11.00
2019-04-27T08:17:56.095Z,11.00
2019-04-27T08:20:26.571Z,11.00
2019-04-27T08:22:56.996Z,11.10
2019-04-27T08:25:28.690Z,11.10
2019-04-27T08:28:08.577Z,11.10
2019-04-27T08:31:18.670Z,11.10
2019-04-27T08:33:51.167Z,11.20
2019-04-27T08:36:24.772Z,11.20
2019-04-27T08:38:56.444Z,11.20
2019-04-27T08:41:29.456Z,11.20
2019-04-27T08:44:03.363Z,11.20
2019-04-27T08:46:36.255Z,11.30
2019-04-27T08:49:10.207Z,11.40
2019-04-27T08:51:41.558Z,11.50
2019-04-27T08:54:11.898Z,11.50
2019-04-27T08:56:42.483Z,11.60
2019-04-27T08:59:19.932Z,11.60
2019-04-27T09:01:52.318Z,11.70
2019-04-27T09:04:23.005Z,11.80
2019-04-27T09:06:59.537Z,11.90
2019-04-27T09:09:35.989Z,11.90
2019-04-27T09:12:26.535Z,12.00
2019-04-27T09:15:23.775Z,12.00
2019-04-27T09:17:55.502Z,12.10
2019-04-27T09:20:50.339Z,12.10
2019-04-27T09:23:20.306Z,12.10
2019-04-27T09:25:50.478Z,12.20
2019-04-27T09:28:32.803Z,12.00
2019-04-27T09:31:04.702Z,11.90
2019-04-27T09:33:34.573Z,11.90
2019-04-27T09:36:06.130Z,11.90
2019-04-27T09:38:36.260Z,11.90
2019-04-27T09:41:07.163Z,11.80
2019-04-27T09:43:38.544Z,11.70
2019-04-27T09:46:08.416Z,10.60
2019-04-27T09:48:38.320Z,9.90
2019-04-27T09:51:10.103Z,9.60
2019-04-27T09:53:47.200Z,9.50
2019-04-27T09:56:17.584Z,9.50
2019-04-27T09:58:48.148Z,9.60
2019-04-27T10:01:18.727Z,9.50
2019-04-27T10:03:51.697Z,9.40
2019-04-27T10:06:22.033Z,9.50
2019-04-27T10:08:52.309Z,9.40
2019-04-27T10:11:43.475Z,9.50
2019-04-27T10:14:16.214Z,9.70
2019-04-27T10:16:50.139Z,10.00
2019-04-27T10:19:28.566Z,10.40
2019-04-27T10:21:52.549Z,10.70
2019-04-27T10:24:22.483Z,10.60
2019-04-27T10:26:54.269Z,10.80
2019-04-27T10:29:24.591Z,10.90
2019-04-27T10:31:57.123Z,10.90
2019-04-27T10:34:27.118Z,10.90
2019-04-27T10:36:59.829Z,11.00
2019-04-27T10:39:29.913Z,11.10
2019-04-27T10:42:10.232Z,11.10
2019-04-27T10:44:40.927Z,11.10
2019-04-27T10:47:15.835Z,11.20
2019-04-27T10:50:01.398Z,11.30
2019-04-27T10:52:31.519Z,11.40
2019-04-27T10:55:01.372Z,11.40
2019-04-27T10:57:34.688Z,11.50
2019-04-27T11:00:06.713Z,11.50
2019-04-27T11:02:37.342Z,11.40
2019-04-27T11:05:31.373Z,11.20
2019-04-27T11:08:01.853Z,11.10
2019-04-27T11:10:42.872Z,11.00
2019-04-27T11:13:16.484Z,10.90
2019-04-27T11:15:51.064Z,11.00
2019-04-27T11:18:25.797Z,11.00
2019-04-27T11:21:00.042Z,11.00
2019-04-27T11:23:35.921Z,10.70
2019-04-27T11:26:08.542Z,10.50
2019-04-27T11:28:38.890Z,10.50
2019-04-27T11:31:22.407Z,10.40
2019-04-27T11:33:56.648Z,10.50
2019-04-27T11:36:49.163Z,10.50
2019-04-27T11:39:21.128Z,10.40
2019-04-27T11:41:53.822Z,10.40
2019-04-27T11:44:29.309Z,10.40
2019-04-27T11:47:03.113Z,10.50
2019-04-27T11:49:38.440Z,10.80
2019-04-27T11:52:12.366Z,11.00
2019-04-27T11:54:42.705Z,11.00
2019-04-27T11:57:13.166Z,10.90
2019-04-27T11:59:46.594Z,10.70
2019-04-27T12:02:17.588Z,10.80
2019-04-27T12:04:51.208Z,10.90
2019-04-27T12:07:33.691Z,11.10
2019-04-27T12:13:53.334Z,11.50
2019-04-27T12:16:26.557Z,11.50
2019-04-27T12:18:57.468Z,11.50
2019-04-27T12:21:29.624Z,11.30
2019-04-27T12:24:00.614Z,11.60
2019-04-27T12:26:44.311Z,11.90
2019-04-27T12:29:19.107Z,12.00
2019-04-27T12:32:07.512Z,12.00
2019-04-27T12:34:39.702Z,12.00
2019-04-27T12:37:15.721Z,12.10
2019-04-27T12:39:52.305Z,12.20
2019-04-27T12:42:28.959Z,12.20
2019-04-27T12:44:59.641Z,12.30
2019-04-27T12:47:31.416Z,12.50
2019-04-27T12:50:04.129Z,13.50
2019-04-27T12:52:35.940Z,14.10
2019-04-27T12:55:21.156Z,15.30
2019-04-27T12:58:10.571Z,16.90
2019-04-27T13:01:07.268Z,17.40
2019-04-27T13:03:23.491Z,17.80
2019-04-27T13:05:54.942Z,18.40
2019-04-27T13:08:31.830Z,19.20
2019-04-27T13:11:07.435Z,19.40
2019-04-27T13:13:41.384Z,20.00
2019-04-27T13:16:20.513Z,19.20
2019-04-27T13:18:50.643Z,19.40
2019-04-27T13:21:26.510Z,19.60
2019-04-27T13:24:04.274Z,19.90
2019-04-27T13:26:31.033Z,19.90
2019-04-27T13:29:04.013Z,19.60
2019-04-27T13:31:40.666Z,17.90
2019-04-27T13:34:11.489Z,16.50
2019-04-27T13:36:45.666Z,16.10
2019-04-27T13:39:20.935Z,15.90
2019-04-27T13:41:55.885Z,16.60
2019-04-27T13:44:33.023Z,17.40
2019-04-27T13:47:30.131Z,17.70
2019-04-27T13:50:13.059Z,17.30
2019-04-27T13:52:46.722Z,16.60
2019-04-27T13:55:18.274Z,16.00
2019-04-27T13:57:52.451Z,15.80
2019-04-27T14:00:23.123Z,15.60
2019-04-27T14:02:58.422Z,15.40
2019-04-27T14:05:29.290Z,15.40
2019-04-27T14:07:59.603Z,15.30
2019-04-27T14:10:29.503Z,15.10
2019-04-27T14:12:59.401Z,14.30
2019-04-27T14:15:31.992Z,14.00
2019-04-27T14:18:15.239Z,13.30
2019-04-27T14:20:59.120Z,12.60
2019-04-27T14:23:44.655Z,12.00
2019-04-27T14:26:18.453Z,11.70
2019-04-27T14:28:51.640Z,11.60
2019-04-27T14:31:34.902Z,11.70
2019-04-27T14:34:08.982Z,11.80
2019-04-27T14:36:42.249Z,12.00
2019-04-27T14:39:15.778Z,12.30
2019-04-27T14:41:46.278Z,12.60
2019-04-27T14:44:16.516Z,12.90
2019-04-27T14:46:49.639Z,13.00
2019-04-27T14:49:20.254Z,13.10
2019-04-27T14:51:58.779Z,13.10
2019-04-27T14:54:45.197Z,13.10
2019-04-27T14:57:02.432Z,13.20
2019-04-27T14:59:33.756Z,13.30
2019-04-27T15:02:18.549Z,13.40
2019-04-27T15:04:55.458Z,13.50
2019-04-27T15:07:34.226Z,13.40
2019-04-27T15:10:09.065Z,13.60
2019-04-27T15:12:46.412Z,13.80
2019-04-27T15:15:21.337Z,13.90
2019-04-27T15:17:57.433Z,13.90
2019-04-27T15:20:35.632Z,13.80
2019-04-27T15:23:06.630Z,13.50
2019-04-27T15:25:45.047Z,12.40
2019-04-27T15:28:15.593Z,11.90
2019-04-27T15:31:23.652Z,11.60
2019-04-27T15:34:12.874Z,11.40
2019-04-27T15:37:00.215Z,11.60
2019-04-27T15:39:50.486Z,11.90
2019-04-27T15:42:49.011Z,12.20
2019-04-27T15:45:24.299Z,12.50
2019-04-27T15:47:59.705Z,12.70
2019-04-27T15:50:40.144Z,12.80
2019-04-27T15:53:18.086Z,12.90
2019-04-27T15:55:59.984Z,13.10
2019-04-27T15:58:32.619Z,13.20
2019-04-27T16:01:11.810Z,13.30
2019-04-27T16:03:51.951Z,13.30
2019-04-27T16:06:24.927Z,13.20
2019-04-27T16:08:59.049Z,13.20
2019-04-27T16:11:30.762Z,13.20
2019-04-27T16:14:06.760Z,13.40
2019-04-27T16:16:38.233Z,13.70
2019-04-27T16:19:14.070Z,13.60
2019-04-27T16:21:53.521Z,13.60
2019-04-27T16:24:26.525Z,13.10
2019-04-27T16:26:58.907Z,13.10
2019-04-27T16:29:31.543Z,13.10
2019-04-27T16:32:11.332Z,13.00
2019-04-27T16:34:41.439Z,12.70
2019-04-27T16:37:18.904Z,12.70
2019-04-27T16:39:54.967Z,12.40
2019-04-27T16:42:28.814Z,12.30
2019-04-27T16:45:06.490Z,12.10
2019-04-27T16:47:38.389Z,11.70
2019-04-27T16:50:12.472Z,11.80
2019-04-27T16:52:50.771Z,11.80
2019-04-27T16:55:20.100Z,11.80
2019-04-27T16:57:50.834Z,11.80
2019-04-27T17:00:30.221Z,11.90
2019-04-27T17:03:06.767Z,11.80
2019-04-27T17:06:03.977Z,11.80
2019-04-27T17:08:35.940Z,11.90
2019-04-27T17:11:31.481Z,12.00
2019-04-27T17:14:09.482Z,12.10
2019-04-27T17:17:03.629Z,12.20
2019-04-27T17:19:53.266Z,12.00
2019-04-27T17:22:28.644Z,11.90
2019-04-27T17:24:59.870Z,11.80
2019-04-27T17:27:50.020Z,11.80
2019-04-27T17:30:25.303Z,11.80
2019-04-27T17:33:01.516Z,11.80
2019-04-27T17:35:39.507Z,11.80
2019-04-27T17:38:12.343Z,11.80
2019-04-27T17:40:40.902Z,11.80
2019-04-27T17:43:16.237Z,11.90
2019-04-27T17:45:50.229Z,11.90
2019-04-27T17:48:28.866Z,12.00
2019-04-27T17:51:02.555Z,12.00
2019-04-27T17:53:33.185Z,12.00
2019-04-27T17:56:05.977Z,12.00
2019-04-27T17:58:39.722Z,12.10
2019-04-27T18:01:20.963Z,12.00
2019-04-27T18:03:58.502Z,12.00
2019-04-27T18:06:34.344Z,12.00
2019-04-27T18:09:08.359Z,12.00
2019-04-27T18:11:41.242Z,12.00
2019-04-27T18:14:59.280Z,11.90
2019-04-27T18:16:50.654Z,11.90
2019-04-27T18:19:40.191Z,11.80
2019-04-27T18:22:09.874Z,11.80
2019-04-27T18:25:06.015Z,11.80
2019-04-27T18:28:15.080Z,11.70
2019-04-27T18:31:16.090Z,11.40
2019-04-27T18:33:49.242Z,10.00
2019-04-27T18:36:39.521Z,9.40
2019-04-27T18:39:12.220Z,9.20
2019-04-27T18:41:49.166Z,9.10
2019-04-27T18:44:12.677Z,9.10
2019-04-27T18:46:44.217Z,9.00
2019-04-27T18:49:52.871Z,9.00
2019-04-27T18:53:00.073Z,9.10
2019-04-27T18:55:35.504Z,9.20
2019-04-27T18:58:05.800Z,9.20
2019-04-27T19:00:55.571Z,9.30
2019-04-27T19:03:36.038Z,9.50
2019-04-27T19:06:10.646Z,9.40
2019-04-27T19:08:45.406Z,9.50
2019-04-27T19:11:23.236Z,9.60
2019-04-27T19:14:03.131Z,9.60
2019-04-27T19:16:35.348Z,9.70
2019-04-27T19:19:19.137Z,9.80
2019-04-27T19:21:54.053Z,9.90
2019-04-27T19:24:24.122Z,10.00
2019-04-27T19:27:29.819Z,10.00
2019-04-27T19:30:38.860Z,10.10
2019-04-27T19:33:19.749Z,10.20
2019-04-27T19:35:58.525Z,10.30
2019-04-27T19:38:30.397Z,10.20
2019-04-27T19:41:01.835Z,10.20
2019-04-27T19:43:35.553Z,10.20
2019-04-27T19:46:11.059Z,10.20
2019-04-27T19:48:51.971Z,10.30
2019-04-27T19:51:28.213Z,10.40
2019-04-27T19:54:09.017Z,10.50
2019-04-27T19:56:44.303Z,10.50
2019-04-27T19:59:21.887Z,10.50
2019-04-27T20:01:58.387Z,10.60
2019-04-27T20:04:39.886Z,10.60
2019-04-27T20:07:18.703Z,10.70
2019-04-27T20:10:02.382Z,10.70
2019-04-27T20:12:37.765Z,10.60
2019-04-27T20:15:33.231Z,10.50
2019-04-27T20:18:04.482Z,10.60
2019-04-27T20:20:48.291Z,10.70
2019-04-27T20:23:22.211Z,10.70
2019-04-27T20:25:52.740Z,10.80
2019-04-27T20:28:23.211Z,10.90
2019-04-27T20:31:36.162Z,10.90
2019-04-27T20:34:31.804Z,10.90
2019-04-27T20:37:08.637Z,11.00
2019-04-27T20:39:46.134Z,11.00
2019-04-27T20:42:18.212Z,11.00
2019-04-27T20:45:05.245Z,11.00
2019-04-27T20:47:48.116Z,10.90
2019-04-27T20:50:22.607Z,10.80
2019-04-27T20:52:59.541Z,10.80
2019-04-27T20:55:36.116Z,10.70
2019-04-27T20:58:14.948Z,10.60
2019-04-27T21:01:09.859Z,10.60
2019-04-27T21:03:51.177Z,10.70
2019-04-27T21:06:35.546Z,10.80
2019-04-27T21:09:13.432Z,10.80
2019-04-27T21:11:48.930Z,10.90
2019-04-27T21:14:39.481Z,10.80
2019-04-27T21:18:17.598Z,10.90
2019-04-27T21:20:46.062Z,10.90
2019-04-27T21:23:16.997Z,10.90
2019-04-27T21:25:51.282Z,10.70
2019-04-27T21:28:30.349Z,10.60
2019-04-27T21:31:16.418Z,10.60
2019-04-27T21:33:59.064Z,10.60
2019-04-27T21:36:36.549Z,10.50
2019-04-27T21:39:18.043Z,10.50
2019-04-27T21:42:05.108Z,10.50
2019-04-27T21:44:46.851Z,10.60
2019-04-27T21:47:38.835Z,10.50
2019-04-27T21:50:13.839Z,10.50
2019-04-27T21:53:07.097Z,10.50
2019-04-27T21:55:45.712Z,10.50
2019-04-27T21:58:28.295Z,10.50
2019-04-27T22:01:29.440Z,10.60
2019-04-27T22:04:01.546Z,10.50
2019-04-27T22:06:35.955Z,10.50
2019-04-27T22:09:11.742Z,10.60
2019-04-27T22:11:57.091Z,10.60
2019-04-27T22:14:31.101Z,10.70
2019-04-27T22:17:11.200Z,10.60
2019-04-27T22:19:53.906Z,10.60
2019-04-27T22:22:41.377Z,10.60
2019-04-27T22:25:13.084Z,10.60
2019-04-27T22:27:43.917Z,10.60
2019-04-27T22:30:16.510Z,10.60
2019-04-27T22:32:55.427Z,10.60
2019-04-27T22:35:26.884Z,10.50
2019-04-27T22:37:58.922Z,10.50
2019-04-27T22:41:02.083Z,10.50
2019-04-27T22:43:52.256Z,10.50
2019-04-27T22:46:31.830Z,10.50
2019-04-27T22:49:03.934Z,10.50
2019-04-27T22:51:34.840Z,10.50
2019-04-27T22:54:11.638Z,10.50
2019-04-27T22:56:48.458Z,10.50
2019-04-27T22:59:37.889Z,10.50
2019-04-27T23:02:24.278Z,10.40
2019-04-27T23:05:01.862Z,10.40
2019-04-27T23:07:33.833Z,10.40
2019-04-27T23:10:16.023Z,10.40
2019-04-27T23:12:51.933Z,10.50
2019-04-27T23:15:24.276Z,10.50
2019-04-27T23:18:00.451Z,10.50
2019-04-27T23:20:32.133Z,10.60
2019-04-27T23:23:03.021Z,10.50
2019-04-27T23:25:42.388Z,10.50
2019-04-27T23:28:10.859Z,10.50
2019-04-27T23:31:08.423Z,10.50
2019-04-27T23:33:43.460Z,10.50
2019-04-27T23:36:26.193Z,10.40
2019-04-27T23:39:11.894Z,10.30
2019-04-27T23:41:45.027Z,10.30
2019-04-27T23:44:16.033Z,10.30
2019-04-27T23:46:50.265Z,10.20
2019-04-27T23:49:18.193Z,10.20
2019-04-27T23:51:59.930Z,10.20
2019-04-27T23:54:30.758Z,10.20
2019-04-27T23:57:01.815Z,10.20
2019-04-27T23:59:36.045Z,10.30
